Time;durP1;ratioP1;P1;durP2;ratioP2;P2;SDS_P1;SDS_P2;PMS_P1;PMS_P2;Temp;Humidity;BMP_temperature;BMP_pressure;BME280_temperature;BME280_humidity;BME280_pressure;Samples;Min_cycle;Max_cycle;Signal;HPM_P1;HPM_P2
2022/06/22 00:02:17;;;;;;;16.42;9.43;;;12.40;99.90;;;;;;5075127;28;20395;-62
2022/06/22 00:04:48;;;;;;;8.57;7.45;;;12.40;99.90;;;;;;5077831;28;20048;-63
2022/06/22 00:07:19;;;;;;;9.40;7.20;;;12.40;99.90;;;;;;5078660;28;20102;-63
2022/06/22 00:09:46;;;;;;;8.15;7.32;;;12.40;99.90;;;;;;5077282;28;20037;-63
2022/06/22 00:12:38;;;;;;;8.40;7.50;;;12.40;99.90;;;;;;5069403;28;20059;-63
2022/06/22 00:15:31;;;;;;;9.88;7.05;;;12.40;99.90;;;;;;5068587;28;20140;-63
2022/06/22 00:17:57;;;;;;;10.82;8.65;;;12.40;99.90;;;;;;5070503;28;20689;-62
2022/06/22 00:20:29;;;;;;;8.75;7.03;;;12.40;99.90;;;;;;5084158;28;20076;-63
2022/06/22 00:23:08;;;;;;;8.50;7.38;;;12.40;99.90;;;;;;5077588;28;20051;-62
2022/06/22 00:25:37;;;;;;;10.90;7.43;;;12.40;99.90;;;;;;5074936;28;20127;-62
2022/06/22 00:28:31;;;;;;;9.15;6.97;;;12.30;99.90;;;;;;5080768;28;20067;-62
2022/06/22 00:31:14;;;;;;;8.55;7.65;;;12.30;99.90;;;;;;5083798;28;20442;-62
2022/06/22 00:34:08;;;;;;;11.07;7.53;;;12.20;99.90;;;;;;5069037;28;20044;-63
2022/06/22 00:36:49;;;;;;;8.35;6.90;;;12.20;99.90;;;;;;5069372;28;20044;-63
2022/06/22 00:39:28;;;;;;;8.73;7.25;;;12.20;99.90;;;;;;5072814;28;20043;-63
2022/06/22 00:42:14;;;;;;;14.77;8.02;;;12.10;99.90;;;;;;5077697;28;20044;-62
2022/06/22 00:44:44;;;;;;;8.60;6.72;;;12.10;99.90;;;;;;5084623;28;20097;-62
2022/06/22 00:47:19;;;;;;;9.07;7.40;;;12.10;99.90;;;;;;5080814;28;20072;-62
2022/06/22 00:49:45;;;;;;;14.07;7.80;;;12.00;99.90;;;;;;5080790;28;20044;-63
2022/06/22 00:52:17;;;;;;;9.60;7.18;;;12.00;99.90;;;;;;5081487;28;20074;-63
2022/06/22 00:54:45;;;;;;;8.23;7.30;;;11.90;99.90;;;;;;5070358;28;20059;-63
2022/06/22 00:57:19;;;;;;;9.77;6.68;;;11.90;99.90;;;;;;5078139;28;20055;-62
2022/06/22 00:59:55;;;;;;;9.35;6.85;;;11.80;99.90;;;;;;5076228;28;20048;-63
2022/06/22 01:02:46;;;;;;;8.80;7.03;;;11.80;99.90;;;;;;5081691;28;20141;-63
2022/06/22 01:05:25;;;;;;;11.07;7.30;;;11.70;99.90;;;;;;5077137;28;20044;-63
2022/06/22 01:08:16;;;;;;;8.00;7.20;;;11.70;99.90;;;;;;5087969;28;20127;-63
2022/06/22 01:10:55;;;;;;;10.90;7.00;;;11.70;99.90;;;;;;5061881;28;20531;-63
2022/06/22 01:13:40;;;;;;;12.27;7.40;;;11.70;99.90;;;;;;5066846;28;20519;-63
2022/06/22 01:16:15;;;;;;;9.52;6.95;;;11.70;99.90;;;;;;5068341;28;20056;-62
2022/06/22 01:18:56;;;;;;;7.63;6.82;;;11.70;99.90;;;;;;5067027;28;20048;-62
2022/06/22 01:21:33;;;;;;;10.10;7.30;;;11.80;99.90;;;;;;5068002;28;20126;-63
2022/06/22 01:24:16;;;;;;;7.57;6.72;;;11.80;99.90;;;;;;5067928;28;20525;-62
2022/06/22 01:26:45;;;;;;;6.50;5.90;;;11.80;99.90;;;;;;5081263;28;20407;-63
2022/06/22 01:29:16;;;;;;;8.50;5.95;;;11.80;99.90;;;;;;5072926;28;20037;-63
2022/06/22 01:31:45;;;;;;;8.73;6.55;;;11.70;99.90;;;;;;5080621;28;20170;-62
2022/06/22 01:34:19;;;;;;;9.13;7.00;;;11.70;99.90;;;;;;5080117;28;20039;-62
2022/06/22 01:36:46;;;;;;;6.85;6.03;;;11.70;99.90;;;;;;5076471;28;20105;-63
2022/06/22 01:39:14;;;;;;;7.60;6.75;;;11.60;99.90;;;;;;5082043;28;20048;-62
2022/06/22 01:41:44;;;;;;;7.10;6.35;;;11.60;99.90;;;;;;5084567;28;20585;-63
2022/06/22 01:44:20;;;;;;;10.10;6.57;;;11.50;99.90;;;;;;5067727;28;20052;-62
2022/06/22 01:47:11;;;;;;;10.30;6.40;;;11.50;99.90;;;;;;5067463;28;20250;-62
2022/06/22 01:50:21;;;;;;;6.53;5.93;;;11.50;99.90;;;;;;5066838;28;20051;-62
2022/06/22 01:52:58;;;;;;;6.70;4.63;;;11.30;99.90;;;;;;5005074;28;20057;-63
2022/06/22 01:55:36;;;;;;;4.65;4.10;;;11.30;99.90;;;;;;5008925;28;20053;-63
2022/06/22 01:58:14;;;;;;;4.07;2.92;;;11.20;99.90;;;;;;5059818;28;20052;-63
2022/06/22 02:00:42;;;;;;;2.58;2.38;;;11.10;99.90;;;;;;5072969;28;20062;-63
2022/06/22 02:03:24;;;;;;;2.40;2.20;;;10.90;99.90;;;;;;5076696;28;20184;-62
2022/06/22 02:09:13;;;;;;;1.85;1.75;;;10.70;99.90;;;;;;5077457;28;20048;-62
2022/06/22 02:11:47;;;;;;;1.30;1.20;;;10.50;99.90;;;;;;5083216;28;20070;-63
2022/06/22 02:14:21;;;;;;;2.55;1.58;;;10.40;99.90;;;;;;5073632;28;20040;-63
2022/06/22 02:17:01;;;;;;;0.98;0.98;;;10.30;99.90;;;;;;5075331;28;20051;-62
2022/06/22 02:19:29;;;;;;;1.27;1.17;;;10.30;99.90;;;;;;5074338;28;20045;-62
2022/06/22 02:22:01;;;;;;;1.45;1.35;;;10.20;99.90;;;;;;5074940;28;20040;-63
2022/06/22 02:24:38;;;;;;;1.50;1.40;;;10.20;99.90;;;;;;5071753;28;20062;-62
2022/06/22 02:27:09;;;;;;;1.15;1.05;;;10.20;99.90;;;;;;5076610;28;20040;-62
2022/06/22 02:29:39;;;;;;;1.42;1.30;;;10.20;99.90;;;;;;5077620;28;20076;-62
2022/06/22 02:32:09;;;;;;;2.33;1.38;;;10.20;99.90;;;;;;5078946;28;20039;-62
2022/06/22 02:34:37;;;;;;;1.55;1.30;;;10.10;99.90;;;;;;5076884;28;20046;-62
2022/06/22 02:37:07;;;;;;;2.70;1.20;;;10.10;99.90;;;;;;5076198;28;20807;-62
2022/06/22 02:39:36;;;;;;;1.40;1.30;;;10.20;99.90;;;;;;5078692;28;20044;-63
2022/06/22 02:44:48;;;;;;;4.88;1.73;;;10.20;99.90;;;;;;5074177;28;20510;-62
2022/06/22 02:47:22;;;;;;;1.40;1.30;;;10.20;99.90;;;;;;5080204;28;20048;-62
2022/06/22 02:49:55;;;;;;;1.98;1.25;;;10.10;99.90;;;;;;5073194;28;20059;-63
2022/06/22 02:52:22;;;;;;;;;;;10.10;99.90;;;;;;5075922;28;20723;-63
2022/06/22 02:54:58;;;;;;;3.05;1.42;;;10.00;99.90;;;;;;5078023;28;19943;-62
2022/06/22 02:57:48;;;;;;;1.85;1.30;;;10.00;99.90;;;;;;5074998;28;20055;-62
2022/06/22 03:00:19;;;;;;;1.80;1.70;;;10.00;99.90;;;;;;5074332;28;20078;-63
2022/06/22 03:02:46;;;;;;;1.80;1.70;;;10.00;99.90;;;;;;5078794;28;20048;-63
2022/06/22 03:05:14;;;;;;;1.13;1.13;;;10.00;99.90;;;;;;5067194;28;20040;-63
2022/06/22 03:07:43;;;;;;;1.42;1.20;;;10.10;99.90;;;;;;5065544;28;20063;-62
2022/06/22 03:10:20;;;;;;;1.20;1.10;;;10.10;99.90;;;;;;5065962;28;20082;-62
2022/06/22 03:12:46;;;;;;;1.60;1.50;;;10.00;99.90;;;;;;5074767;28;20702;-62
2022/06/22 03:15:17;;;;;;;1.38;1.27;;;9.90;99.90;;;;;;5076629;28;20089;-62
2022/06/22 03:17:43;;;;;;;1.60;1.50;;;9.80;99.90;;;;;;5077904;28;20044;-61
2022/06/22 03:20:14;;;;;;;2.55;1.23;;;9.70;99.90;;;;;;5082479;28;20149;-62
2022/06/22 03:22:47;;;;;;;2.00;1.88;;;9.60;99.90;;;;;;5079874;28;20047;-62
2022/06/22 03:25:26;;;;;;;16.10;2.45;;;9.50;99.90;;;;;;5072090;28;20048;-62
2022/06/22 03:27:58;;;;;;;2.60;2.40;;;9.60;99.90;;;;;;5073695;28;20410;-63
2022/06/22 03:30:30;;;;;;;3.37;3.10;;;9.50;99.90;;;;;;5068182;28;20128;-62
2022/06/22 03:33:03;;;;;;;3.05;2.85;;;9.50;99.90;;;;;;5073987;28;20515;-62
2022/06/22 03:35:36;;;;;;;2.95;2.60;;;9.40;99.90;;;;;;5070033;28;20048;-62
2022/06/22 03:38:05;;;;;;;3.10;2.90;;;9.40;99.90;;;;;;5072587;28;20052;-62
2022/06/22 03:40:42;;;;;;;4.15;2.65;;;9.40;99.90;;;;;;5086526;28;20097;-63
2022/06/22 03:43:29;;;;;;;2.55;2.35;;;9.40;99.90;;;;;;5085310;28;20097;-62
2022/06/22 03:46:11;;;;;;;2.70;2.50;;;9.40;99.90;;;;;;5085970;28;20079;-63
2022/06/22 03:48:45;;;;;;;2.50;2.30;;;9.50;99.90;;;;;;5083233;28;20044;-62
2022/06/22 03:51:28;;;;;;;2.70;2.50;;;9.50;99.90;;;;;;5074470;28;20645;-63
2022/06/22 03:53:59;;;;;;;2.58;2.38;;;9.50;99.90;;;;;;5082170;28;20055;-62
2022/06/22 03:56:33;;;;;;;2.60;2.40;;;9.60;99.90;;;;;;5075312;28;20052;-63
2022/06/22 03:59:01;;;;;;;3.05;2.83;;;9.60;99.90;;;;;;5089953;28;20386;-62
2022/06/22 04:01:27;;;;;;;3.47;2.83;;;9.60;99.90;;;;;;5089927;28;20036;-62
2022/06/22 04:03:54;;;;;;;2.85;2.47;;;9.70;99.90;;;;;;5089384;28;20450;-63
2022/06/22 04:06:54;;;;;;;2.70;2.50;;;9.80;99.90;;;;;;5089914;28;20048;-63
2022/06/22 04:09:23;;;;;;;4.28;3.15;;;9.80;99.90;;;;;;5055300;28;20116;-63
2022/06/22 04:11:58;;;;;;;3.03;2.78;;;9.90;99.90;;;;;;5081314;28;20517;-62
2022/06/22 04:14:32;;;;;;;2.70;2.50;;;9.90;99.90;;;;;;5074102;28;20113;-63
2022/06/22 04:17:03;;;;;;;2.78;2.58;;;10.00;99.90;;;;;;5076421;28;20047;-62
2022/06/22 04:20:00;;;;;;;3.22;2.92;;;10.00;99.90;;;;;;5075390;28;20562;-62
2022/06/22 04:22:28;;;;;;;3.08;2.85;;;10.10;99.90;;;;;;5070284;28;20675;-62
2022/06/22 04:25:04;;;;;;;3.75;2.97;;;10.20;99.90;;;;;;5079875;28;20041;-63
2022/06/22 04:27:38;;;;;;;3.13;2.92;;;10.30;99.90;;;;;;5072613;28;20067;-62
2022/06/22 04:30:11;;;;;;;2.75;2.55;;;10.40;99.90;;;;;;5076868;28;20498;-63
2022/06/22 04:32:43;;;;;;;2.60;2.40;;;10.50;99.90;;;;;;5077393;28;20457;-62
2022/06/22 04:35:09;;;;;;;;;;;10.50;99.90;;;;;;5080593;28;20129;-62
2022/06/22 04:37:59;;;;;;;2.78;2.58;;;10.60;99.90;;;;;;5077952;28;19964;-62
2022/06/22 04:41:03;;;;;;;2.97;2.60;;;10.70;99.90;;;;;;5081928;28;20493;-63
2022/06/22 04:43:30;;;;;;;3.15;2.95;;;10.80;99.90;;;;;;5074070;28;20052;-63
2022/06/22 04:45:56;;;;;;;5.18;3.22;;;10.90;99.90;;;;;;5079854;28;20052;-63
2022/06/22 04:48:37;;;;;;;3.58;3.28;;;11.00;99.90;;;;;;5084919;28;20512;-62
2022/06/22 04:51:06;;;;;;;3.75;3.30;;;11.10;99.90;;;;;;5081442;28;20032;-62
2022/06/22 04:53:36;;;;;;;4.00;3.60;;;11.20;99.90;;;;;;5077293;28;20175;-62
2022/06/22 04:56:10;;;;;;;4.10;3.80;;;11.30;99.90;;;;;;5075977;28;20040;-62
2022/06/22 04:58:51;;;;;;;4.15;3.75;;;11.40;99.90;;;;;;5079535;28;20145;-62
2022/06/22 05:01:30;;;;;;;5.70;3.70;;;11.50;99.90;;;;;;5072979;28;20071;-62
2022/06/22 05:04:01;;;;;;;4.88;4.10;;;11.60;99.90;;;;;;5081230;28;20462;-63
2022/06/22 05:06:36;;;;;;;4.63;3.90;;;11.70;99.90;;;;;;5081659;28;20442;-62
2022/06/22 05:09:08;;;;;;;10.77;5.45;;;11.80;99.90;;;;;;5075847;28;20040;-62
2022/06/22 05:11:44;;;;;;;5.55;5.05;;;11.90;99.90;;;;;;5078278;28;20059;-63
2022/06/22 05:14:16;;;;;;;7.63;5.40;;;12.00;99.90;;;;;;5080568;28;20131;-62
2022/06/22 05:16:48;;;;;;;8.60;5.28;;;12.10;99.90;;;;;;5076817;28;20103;-63
2022/06/22 05:19:15;;;;;;;6.95;5.40;;;12.20;99.90;;;;;;5077025;28;20043;-62
2022/06/22 05:21:46;;;;;;;5.70;5.18;;;12.20;99.90;;;;;;5075084;28;20753;-63
2022/06/22 05:24:17;;;;;;;7.57;6.50;;;12.30;99.90;;;;;;5081068;28;20067;-62
2022/06/22 05:26:44;;;;;;;8.97;6.20;;;12.60;99.90;;;;;;5075709;28;20041;-63
2022/06/22 05:29:19;;;;;;;12.07;7.85;;;12.50;99.90;;;;;;5075110;28;20037;-63
2022/06/22 05:31:58;;;;;;;12.95;9.48;;;12.60;99.90;;;;;;5077943;28;20048;-62
2022/06/22 05:34:29;;;;;;;8.80;7.90;;;12.70;99.90;;;;;;5077322;28;20079;-62
2022/06/22 05:37:13;;;;;;;11.47;8.57;;;12.80;99.90;;;;;;5076233;28;20057;-63
2022/06/22 05:39:40;;;;;;;11.88;8.80;;;12.90;99.90;;;;;;5078052;28;20056;-63
2022/06/22 05:42:08;;;;;;;12.90;9.10;;;12.90;99.90;;;;;;5076272;28;20037;-62
2022/06/22 05:44:34;;;;;;;11.68;9.60;;;13.00;99.90;;;;;;5077074;28;20063;-63
2022/06/22 05:47:02;;;;;;;11.32;9.20;;;13.10;99.90;;;;;;5076564;28;20380;-63
2022/06/22 05:49:57;;;;;;;17.25;9.95;;;13.20;99.90;;;;;;5075609;28;20551;-63
2022/06/22 05:52:39;;;;;;;12.60;9.93;;;13.30;99.90;;;;;;5046776;28;20048;-62
2022/06/22 05:55:10;;;;;;;;;;;13.30;99.90;;;;;;5075532;28;20418;-63
2022/06/22 05:57:49;;;;;;;17.42;12.13;;;13.40;99.90;;;;;;5071715;28;19920;-63
2022/06/22 06:00:27;;;;;;;14.88;11.02;;;13.50;99.90;;;;;;5076552;28;20513;-63
2022/06/22 06:03:05;;;;;;;15.48;10.88;;;13.60;99.90;;;;;;5074048;28;20044;-63
2022/06/22 06:05:35;;;;;;;10.02;9.00;;;13.70;99.90;;;;;;5080254;28;20045;-63
2022/06/22 06:08:06;;;;;;;10.10;8.75;;;13.70;99.90;;;;;;5073891;28;20517;-64
2022/06/22 06:10:36;;;;;;;12.63;9.45;;;13.80;99.90;;;;;;5075946;28;20048;-70
2022/06/22 06:13:31;;;;;;;13.40;8.05;;;13.90;99.90;;;;;;5073439;28;20103;-65
2022/06/22 06:16:00;;;;;;;8.43;7.45;;;14.00;99.90;;;;;;5068385;28;20051;-71
2022/06/22 06:18:31;;;;;;;7.88;6.90;;;14.10;99.90;;;;;;5071468;28;20045;-64
2022/06/22 06:21:11;;;;;;;15.03;9.60;;;14.10;99.90;;;;;;5070026;28;20047;-65
2022/06/22 06:23:45;;;;;;;16.60;9.85;;;14.20;99.90;;;;;;5076531;28;20036;-63
2022/06/22 06:29:51;;;;;;;11.88;7.35;;;14.30;99.90;;;;;;5077510;28;20047;-64
2022/06/22 06:32:28;;;;;;;13.43;5.95;;;14.40;99.90;;;;;;5068262;28;20575;-65
2022/06/22 06:35:02;;;;;;;8.38;4.22;;;14.50;99.90;;;;;;5078176;28;20048;-64
2022/06/22 06:37:56;;;;;;;6.68;4.25;;;14.50;99.90;;;;;;5078282;28;20097;-65
2022/06/22 06:40:40;;;;;;;5.75;3.88;;;14.60;99.90;;;;;;5086520;28;20044;-64
2022/06/22 06:43:22;;;;;;;6.03;3.72;;;14.70;99.90;;;;;;5086205;28;20040;-71
2022/06/22 06:45:49;;;;;;;;;;;14.80;99.90;;;;;;5085874;28;20059;-66
2022/06/22 06:48:20;;;;;;;5.47;3.30;;;14.80;99.90;;;;;;5086849;28;20284;-63
2022/06/22 06:50:49;;;;;;;6.22;4.00;;;14.80;99.90;;;;;;5070779;28;20514;-63
2022/06/22 06:53:30;;;;;;;4.72;3.35;;;14.90;99.90;;;;;;5064305;28;20044;-64
2022/06/22 06:56:09;;;;;;;7.15;3.63;;;15.10;99.90;;;;;;5072130;28;20144;-64
2022/06/22 06:58:50;;;;;;;7.38;4.30;;;15.10;99.90;;;;;;5063846;28;20411;-64
2022/06/22 07:01:20;;;;;;;5.85;4.00;;;15.20;99.90;;;;;;5063687;28;20503;-63
2022/06/22 07:03:49;;;;;;;4.90;3.60;;;15.30;99.90;;;;;;5065751;28;20051;-64
2022/06/22 07:06:14;;;;;;;13.70;4.53;;;15.30;99.90;;;;;;5065649;28;20052;-64
2022/06/22 07:08:49;;;;;;;7.25;3.70;;;15.40;99.90;;;;;;5066116;28;20040;-64
2022/06/22 07:11:31;;;;;;;11.60;3.90;;;15.40;99.90;;;;;;5066256;28;20570;-64
2022/06/22 07:14:17;;;;;;;7.60;3.95;;;15.50;99.90;;;;;;5064936;28;20059;-64
2022/06/22 07:16:43;;;;;;;5.85;3.92;;;15.50;99.90;;;;;;5065436;28;20044;-64
2022/06/22 07:19:24;;;;;;;6.47;3.80;;;15.70;99.90;;;;;;5065013;28;20054;-64
2022/06/22 07:21:59;;;;;;;10.60;4.13;;;15.70;99.90;;;;;;5065836;28;20053;-64
2022/06/22 07:24:29;;;;;;;7.63;3.60;;;15.80;99.90;;;;;;5066328;28;20081;-64
2022/06/22 07:27:06;;;;;;;13.15;4.57;;;15.50;99.90;;;;;;5065419;28;20041;-64
2022/06/22 07:29:41;;;;;;;7.72;5.18;;;16.00;99.90;;;;;;5065493;28;20055;-63
2022/06/22 07:32:31;;;;;;;7.53;4.40;;;16.10;99.90;;;;;;5065849;28;20055;-64
2022/06/22 07:35:21;;;;;;;4.78;3.08;;;16.20;99.90;;;;;;5065065;28;20136;-63
2022/06/22 07:37:58;;;;;;;7.45;4.47;;;16.30;99.90;;;;;;5065824;28;20534;-64
2022/06/22 07:40:26;;;;;;;11.27;4.70;;;16.30;99.90;;;;;;5065570;28;20072;-64
2022/06/22 07:42:54;;;;;;;7.32;4.05;;;16.40;99.90;;;;;;5066001;28;20044;-64
2022/06/22 07:45:22;;;;;;;10.40;4.50;;;16.50;99.90;;;;;;5065621;28;20045;-64
2022/06/22 07:48:05;;;;;;;4.90;3.38;;;16.50;99.90;;;;;;5065204;28;20087;-64
2022/06/22 07:50:45;;;;;;;7.72;4.32;;;16.60;99.90;;;;;;5065960;28;20668;-63
2022/06/22 07:53:25;;;;;;;7.80;4.65;;;16.70;99.90;;;;;;5065857;28;20124;-64
2022/06/22 07:56:11;;;;;;;8.23;4.75;;;16.80;99.90;;;;;;5063429;28;20060;-64
2022/06/22 07:58:47;;;;;;;9.35;5.10;;;16.80;99.90;;;;;;5065918;28;20093;-63
2022/06/22 08:01:20;;;;;;;4.95;4.00;;;16.90;99.90;;;;;;5064999;28;20382;-64
2022/06/22 08:03:53;;;;;;;7.03;4.03;;;17.00;99.90;;;;;;5065494;28;20554;-64
2022/06/22 08:06:25;;;;;;;9.45;4.78;;;17.00;99.90;;;;;;5065690;28;20442;-63
2022/06/22 08:08:58;;;;;;;6.40;4.95;;;17.10;99.90;;;;;;5064881;28;20054;-64
2022/06/22 08:11:40;;;;;;;9.77;5.10;;;17.10;99.90;;;;;;5065736;28;20052;-64
2022/06/22 08:14:36;;;;;;;8.43;5.40;;;17.20;99.90;;;;;;5065522;28;20048;-64
2022/06/22 08:17:08;;;;;;;5.45;4.88;;;17.30;99.90;;;;;;5053649;28;20148;-64
2022/06/22 08:19:34;;;;;;;8.27;5.03;;;17.40;99.90;;;;;;5065830;28;20049;-64
2022/06/22 08:22:04;;;;;;;7.15;5.03;;;17.40;99.90;;;;;;5065178;28;20055;-63
2022/06/22 08:24:32;;;;;;;4.45;3.95;;;17.50;99.90;;;;;;5064843;28;20415;-64
2022/06/22 08:26:59;;;;;;;4.90;3.78;;;17.60;99.90;;;;;;5065268;28;20158;-64
2022/06/22 08:29:30;;;;;;;7.40;4.10;;;17.60;99.90;;;;;;5065148;28;20048;-64
2022/06/22 08:31:59;;;;;;;6.50;3.88;;;17.60;99.90;;;;;;5065781;28;20095;-64
2022/06/22 08:34:33;;;;;;;8.50;3.85;;;17.70;99.90;;;;;;5065537;28;20056;-64
2022/06/22 08:37:07;;;;;;;8.35;3.78;;;17.80;99.90;;;;;;5064199;28;20534;-65
2022/06/22 08:39:39;;;;;;;7.13;4.15;;;17.80;99.90;;;;;;5066007;28;20636;-64
2022/06/22 08:42:23;;;;;;;4.80;3.70;;;17.90;99.90;;;;;;5069237;28;20047;-64
2022/06/22 08:45:04;;;;;;;7.80;4.50;;;18.00;99.90;;;;;;5068009;28;20048;-64
2022/06/22 08:47:50;;;;;;;8.57;3.45;;;18.00;99.90;;;;;;5068814;28;20072;-64
2022/06/22 08:50:19;;;;;;;7.03;3.72;;;18.10;99.90;;;;;;5067643;28;20056;-64
2022/06/22 08:53:30;;;;;;;8.88;3.90;;;18.20;99.90;;;;;;5068294;28;20110;-64
2022/06/22 08:56:13;;;;;;;7.05;3.65;;;18.30;99.90;;;;;;5068674;28;20056;-64
2022/06/22 08:59:12;;;;;;;6.72;4.18;;;18.30;99.90;;;;;;5068059;28;20049;-64
2022/06/22 09:01:54;;;;;;;9.68;3.40;;;18.30;99.90;;;;;;5068715;28;20041;-64
2022/06/22 09:04:50;;;;;;;8.70;3.50;;;18.40;99.90;;;;;;5068587;28;20076;-64
2022/06/22 09:07:41;;;;;;;7.80;4.05;;;18.40;99.90;;;;;;5068789;28;20036;-64
2022/06/22 09:10:28;;;;;;;4.30;3.63;;;18.50;99.90;;;;;;5044195;28;20377;-64
2022/06/22 09:13:09;;;;;;;10.43;3.70;;;18.50;99.90;;;;;;5067761;28;20079;-64
2022/06/22 09:15:45;;;;;;;10.00;4.05;;;18.50;99.90;;;;;;5068839;28;20048;-64
2022/06/22 09:18:35;;;;;;;6.95;3.85;;;18.60;99.90;;;;;;5068401;28;20040;-64
2022/06/22 09:21:15;;;;;;;10.90;4.53;;;18.70;99.90;;;;;;5068241;28;20048;-64
2022/06/22 09:23:50;;;;;;;6.38;4.05;;;18.70;99.90;;;;;;5068383;28;20047;-63
2022/06/22 09:26:29;;;;;;;9.13;3.60;;;18.90;99.90;;;;;;5067727;28;20049;-64
2022/06/22 09:29:01;;;;;;;9.00;3.80;;;19.00;99.90;;;;;;5068244;28;20044;-64
2022/06/22 09:31:41;;;;;;;7.30;4.07;;;19.00;99.90;;;;;;5067942;28;20093;-63
2022/06/22 09:34:27;;;;;;;8.95;3.65;;;19.10;99.90;;;;;;5067404;28;20170;-64
2022/06/22 09:37:11;;;;;;;6.90;3.40;;;19.20;99.90;;;;;;5068042;28;20117;-64
2022/06/22 09:39:45;;;;;;;5.30;3.40;;;19.30;99.90;;;;;;5067356;28;20049;-64
2022/06/22 09:42:20;;;;;;;7.82;3.83;;;19.30;99.90;;;;;;5067914;28;20060;-64
2022/06/22 09:44:57;;;;;;;6.00;3.50;;;19.40;99.90;;;;;;5067749;28;20047;-64
2022/06/22 09:47:35;;;;;;;7.88;3.67;;;19.50;99.90;;;;;;5066165;28;20503;-64
2022/06/22 09:50:13;;;;;;;7.15;3.60;;;19.40;99.90;;;;;;5067739;28;20036;-64
2022/06/22 09:53:02;;;;;;;6.63;4.00;;;19.40;99.90;;;;;;5066796;28;20055;-64
2022/06/22 09:56:22;;;;;;;6.78;3.58;;;19.50;99.90;;;;;;5066856;28;20068;-64
2022/06/22 09:59:10;;;;;;;4.75;3.60;;;19.50;99.90;;;;;;5066006;28;20454;-64
2022/06/22 10:02:03;;;;;;;7.97;4.03;;;19.60;99.90;;;;;;5066826;28;20049;-64
2022/06/22 10:04:43;;;;;;;5.95;3.55;;;19.60;99.90;;;;;;5067641;28;20052;-64
2022/06/22 10:07:43;;;;;;;6.07;4.13;;;19.70;99.90;;;;;;5066858;28;20492;-64
2022/06/22 10:10:39;;;;;;;6.20;3.88;;;19.70;99.90;;;;;;5067176;28;20058;-64
2022/06/22 10:13:14;;;;;;;7.28;3.45;;;19.80;99.90;;;;;;5067246;28;20342;-64
2022/06/22 10:16:11;;;;;;;8.32;4.15;;;19.80;99.90;;;;;;5066702;28;20079;-64
2022/06/22 10:18:50;;;;;;;7.43;4.50;;;19.80;99.90;;;;;;5067129;28;20044;-64
2022/06/22 10:21:35;;;;;;;8.48;3.80;;;19.70;99.90;;;;;;5066969;28;20749;-64
2022/06/22 10:24:32;;;;;;;8.32;4.20;;;19.70;99.90;;;;;;5066445;28;20059;-64
2022/06/22 10:27:35;;;;;;;8.48;4.68;;;19.70;99.90;;;;;;5066744;28;20119;-64
2022/06/22 10:30:29;;;;;;;6.88;4.18;;;19.70;99.90;;;;;;5066126;28;20048;-64
2022/06/22 10:33:02;;;;;;;9.90;4.85;;;19.70;99.90;;;;;;5066661;28;20063;-64
2022/06/22 10:35:43;;;;;;;11.60;5.00;;;19.80;99.90;;;;;;5066321;28;20509;-64
2022/06/22 10:38:32;;;;;;;8.07;4.00;;;19.90;99.90;;;;;;5065467;28;20123;-64
2022/06/22 10:47:10;;;;;;;6.82;3.45;;;19.70;99.90;;;;;;5066798;28;20048;-64
2022/06/22 10:50:02;;;;;;;4.03;3.53;;;19.70;99.90;;;;;;5066711;28;20495;-64
2022/06/22 10:52:44;;;;;;;6.20;3.53;;;19.70;99.90;;;;;;5066538;28;20045;-64
2022/06/22 10:55:30;;;;;;;10.55;4.70;;;19.80;99.90;;;;;;5066004;28;20056;-64
2022/06/22 10:58:24;;;;;;;6.78;3.72;;;20.00;99.90;;;;;;5066154;28;20324;-64
2022/06/22 11:01:10;;;;;;;9.68;4.03;;;20.10;99.90;;;;;;5066202;28;20391;-64
2022/06/22 11:03:45;;;;;;;9.02;5.38;;;20.30;99.90;;;;;;5066264;28;20124;-64
2022/06/22 11:06:41;;;;;;;8.88;3.85;;;20.50;99.90;;;;;;5065860;28;20044;-64
2022/06/22 11:09:38;;;;;;;6.50;3.90;;;20.50;99.90;;;;;;5066058;28;20048;-64
2022/06/22 11:12:23;;;;;;;7.03;3.65;;;20.40;99.90;;;;;;5065777;28;20048;-64
2022/06/22 11:15:24;;;;;;;8.50;4.13;;;20.30;99.90;;;;;;5066216;28;20056;-64
2022/06/22 11:18:08;;;;;;;8.43;5.03;;;20.40;99.90;;;;;;5066301;28;20633;-64
2022/06/22 11:20:53;;;;;;;8.52;4.60;;;20.50;99.90;;;;;;5066628;28;20040;-64
2022/06/22 11:24:03;;;;;;;8.10;3.50;;;20.70;99.90;;;;;;5066238;28;20067;-64
2022/06/22 11:32:57;;;;;;;7.60;3.78;;;21.10;99.90;;;;;;5064505;28;20052;-64
2022/06/22 11:36:04;;;;;;;7.75;4.15;;;21.10;99.90;;;;;;5066614;28;20049;-64
2022/06/22 11:38:36;;;;;;;9.40;3.92;;;21.20;99.90;;;;;;5065333;28;20503;-64
2022/06/22 11:41:30;;;;;;;7.32;3.90;;;21.20;99.90;;;;;;5065548;28;20372;-64
2022/06/22 11:44:22;;;;;;;4.10;3.47;;;21.30;99.90;;;;;;5066123;28;20155;-64
2022/06/22 11:47:05;;;;;;;7.60;3.67;;;21.20;99.90;;;;;;5064936;28;20056;-64
2022/06/22 11:49:41;;;;;;;6.13;4.25;;;21.20;99.90;;;;;;5066132;28;20616;-64
2022/06/22 11:52:33;;;;;;;8.18;4.20;;;21.20;99.90;;;;;;5065695;28;20045;-64
2022/06/22 11:55:25;;;;;;;7.13;3.67;;;21.10;99.90;;;;;;5064836;28;20511;-64
2022/06/22 11:58:02;;;;;;;6.80;4.00;;;20.90;99.90;;;;;;5065992;28;20059;-64
2022/06/22 12:00:40;;;;;;;7.07;3.85;;;20.90;99.90;;;;;;5065037;28;20055;-64
2022/06/22 12:03:37;;;;;;;5.70;3.60;;;20.80;99.90;;;;;;5065617;28;20408;-64
2022/06/22 12:06:12;;;;;;;8.70;3.70;;;20.80;99.90;;;;;;5065928;28;20044;-64
2022/06/22 12:08:43;;;;;;;3.72;2.85;;;21.00;99.90;;;;;;5065093;28;20048;-64
2022/06/22 12:11:11;;;;;;;10.67;3.53;;;21.00;99.90;;;;;;5065570;28;20131;-64
2022/06/22 12:16:53;;;;;;;5.35;2.90;;;20.80;99.90;;;;;;5069159;28;20053;-64
2022/06/22 12:19:47;;;;;;;7.30;3.40;;;20.80;99.90;;;;;;5069488;28;20489;-64
2022/06/22 12:22:28;;;;;;;9.07;3.45;;;21.00;99.90;;;;;;5068805;28;20552;-64
2022/06/22 12:25:05;;;;;;;7.15;3.25;;;21.10;99.90;;;;;;5068164;28;20052;-64
2022/06/22 12:27:42;;;;;;;6.68;3.25;;;21.30;99.90;;;;;;5069597;28;20120;-64
2022/06/22 12:30:26;;;;;;;8.45;3.55;;;21.50;99.90;;;;;;5067248;28;20058;-64
2022/06/22 12:33:30;;;;;;;10.50;3.70;;;21.60;99.90;;;;;;5068801;28;20123;-64
2022/06/22 12:36:15;;;;;;;5.15;3.05;;;21.80;99.90;;;;;;5060451;28;20057;-64
2022/06/22 12:38:45;;;;;;;6.43;3.75;;;21.90;99.90;;;;;;5069046;28;20127;-64
2022/06/22 12:41:29;;;;;;;7.80;3.15;;;22.00;99.90;;;;;;5069158;28;20106;-64
2022/06/22 12:44:24;;;;;;;5.78;2.80;;;22.10;99.90;;;;;;5067032;28;20052;-64
2022/06/22 12:47:28;;;;;;;4.03;2.95;;;22.00;99.90;;;;;;5068782;28;20088;-64
2022/06/22 12:50:28;;;;;;;6.55;3.40;;;22.00;99.90;;;;;;5068443;28;20127;-64
2022/06/22 12:53:04;;;;;;;5.53;3.28;;;22.10;99.90;;;;;;5068896;28;20045;-64
2022/06/22 12:55:36;;;;;;;7.90;3.58;;;22.30;99.90;;;;;;5068816;28;20070;-64
2022/06/22 12:58:10;;;;;;;5.63;3.55;;;22.40;99.90;;;;;;5067826;28;20772;-64
2022/06/22 13:00:37;;;;;;;8.02;4.72;;;22.50;99.90;;;;;;5068981;28;20131;-64
2022/06/22 13:03:03;;;;;;;9.20;4.13;;;22.40;99.90;;;;;;5068777;28;20399;-64
2022/06/22 13:05:32;;;;;;;6.05;3.33;;;22.20;99.90;;;;;;5067955;28;20048;-64
2022/06/22 13:08:12;;;;;;;6.43;3.67;;;22.30;99.90;;;;;;5068337;28;20535;-64
2022/06/22 13:10:44;;;;;;;8.07;4.35;;;22.20;99.90;;;;;;5066841;28;20653;-64
2022/06/22 13:13:14;;;;;;;;;;;22.00;99.90;;;;;;5068913;28;20048;-64
2022/06/22 13:15:46;;;;;;;7.22;4.07;;;21.80;99.90;;;;;;5068504;28;19930;-64
2022/06/22 13:18:14;;;;;;;;;;;21.80;99.90;;;;;;5068280;28;20048;-64
2022/06/22 13:20:43;;;;;;;8.55;4.70;;;22.00;99.90;;;;;;5068364;28;20011;-64
2022/06/22 13:23:55;;;;;;;5.57;3.92;;;22.10;99.90;;;;;;5068069;28;20507;-64
2022/06/22 13:26:24;;;;;;;10.85;4.65;;;22.20;99.90;;;;;;5005237;28;20046;-64
2022/06/22 13:29:16;;;;;;;8.23;4.22;;;22.40;99.90;;;;;;5005712;28;20056;-64
2022/06/22 13:31:44;;;;;;;5.65;3.80;;;22.50;99.90;;;;;;5003750;28;20178;-64
2022/06/22 13:34:15;;;;;;;8.90;4.07;;;22.60;99.90;;;;;;5066781;28;20056;-64
2022/06/22 13:37:14;;;;;;;6.68;4.13;;;22.70;99.90;;;;;;5068242;28;20098;-64
2022/06/22 13:40:08;;;;;;;7.47;3.72;;;22.90;99.90;;;;;;5067296;28;20116;-64
2022/06/22 13:42:49;;;;;;;7.68;4.75;;;22.90;99.90;;;;;;5067176;28;20056;-64
2022/06/22 13:45:34;;;;;;;6.82;3.85;;;22.90;99.90;;;;;;5067958;28;20457;-64
2022/06/22 13:48:11;;;;;;;8.57;4.53;;;22.90;99.90;;;;;;5067284;28;20044;-64
2022/06/22 13:51:14;;;;;;;7.45;4.25;;;22.90;99.90;;;;;;5068002;28;20048;-64
2022/06/22 13:54:00;;;;;;;6.78;4.00;;;22.90;99.90;;;;;;5067075;28;20099;-64
2022/06/22 13:56:37;;;;;;;6.72;3.60;;;23.10;99.90;;;;;;5067723;28;20064;-64
2022/06/22 13:59:27;;;;;;;9.20;3.75;;;23.10;99.90;;;;;;5066365;28;20059;-64
2022/06/22 14:02:13;;;;;;;7.68;3.97;;;23.30;99.90;;;;;;5066983;28;20430;-64
2022/06/22 14:04:48;;;;;;;6.88;3.92;;;23.30;99.90;;;;;;5067850;28;20175;-64
2022/06/22 14:07:31;;;;;;;4.85;3.50;;;23.30;99.90;;;;;;5067053;28;20044;-64
2022/06/22 14:10:19;;;;;;;5.68;3.58;;;23.30;99.90;;;;;;5067287;28;20044;-64
2022/06/22 14:12:51;;;;;;;6.60;3.88;;;23.30;99.90;;;;;;5067413;28;20045;-64